FNA weather

Lungi International Airport
Freetown, Northern Province, Sierra Leone

Public forecast

Using degrees Celsius for public forecast. Weather courtesy of forecast.io.

METAR (pilot weather report)

Report is more than 2 hours old.

Retrieved 2019/05/25 23:00 UTC (6 hours ago):

GFLL 252300Z 35004KT 8000 TS RA BKN010 FEW027CB 24/23 Q1012 RMK CB-NE

TAF (pilot weather forecast)

Forecast is more than 12 hours old.

Retrieved 2019/05/25 00:00 UTC (1 day ago):

TAF GFLL 252300Z 2600/2706 06005KT 7000 -TSRA FEW0257B BKN010 TEMPO 2601/2606 09005KT TEMPO 2606/2610 18007KT 9000 BKN012 TEMPO 2611/2615 26009KT 9999 SCT013 PROB30 TEMPO 2620/2700 27008KT 8000 TSRA BKNOO9